createdAt,value
2018-07-04T00:01:20.821Z,101075.89
2018-07-04T00:06:30.972Z,101075.77
2018-07-04T00:11:41.050Z,101079.88
2018-07-04T00:16:51.277Z,101073.59
2018-07-04T00:22:01.357Z,101078.61
2018-07-04T00:27:11.456Z,101072.94
2018-07-04T00:32:21.644Z,101068.39
2018-07-04T00:37:31.703Z,101082.00
2018-07-04T00:42:41.828Z,101079.64
2018-07-04T00:47:51.938Z,101082.52
2018-07-04T00:53:02.102Z,101086.38
2018-07-04T00:58:12.146Z,101081.41
2018-07-04T01:03:22.228Z,101072.43
2018-07-04T01:08:32.404Z,101072.48
2018-07-04T01:13:42.530Z,101067.61
2018-07-04T01:18:52.898Z,101069.54
2018-07-04T01:24:03.052Z,101069.25
2018-07-04T01:29:13.169Z,101065.55
2018-07-04T01:34:23.343Z,101063.59
2018-07-04T01:39:33.527Z,101066.55
2018-07-04T01:44:43.584Z,101061.25
2018-07-04T01:49:53.791Z,101059.49
2018-07-04T01:55:03.977Z,101055.56
2018-07-04T02:00:14.064Z,101058.66
2018-07-04T02:05:24.192Z,101047.75
2018-07-04T02:10:34.347Z,101048.65
2018-07-04T02:15:44.558Z,101049.02
2018-07-04T02:20:54.749Z,101045.58
2018-07-04T02:26:04.901Z,101045.38
2018-07-04T02:31:15.161Z,101049.52
2018-07-04T02:36:25.277Z,101061.30
2018-07-04T02:41:35.301Z,101057.53
2018-07-04T02:46:45.491Z,101069.83
2018-07-04T02:51:55.557Z,101058.14
2018-07-04T02:57:05.712Z,101050.84
2018-07-04T03:02:15.792Z,101044.88
2018-07-04T03:07:25.893Z,101050.63
2018-07-04T03:12:36.110Z,101058.34
2018-07-04T03:17:46.245Z,101059.19
2018-07-04T03:22:56.306Z,101052.92
2018-07-04T03:28:06.416Z,101059.25
2018-07-04T03:33:16.562Z,101055.42
2018-07-04T03:38:26.628Z,101056.48
2018-07-04T03:43:36.741Z,101055.42
2018-07-04T03:48:46.869Z,101051.60
2018-07-04T03:53:57.058Z,101037.69
2018-07-04T03:59:07.233Z,101040.42
2018-07-04T04:04:17.413Z,101036.60
2018-07-04T04:09:27.386Z,101040.73
2018-07-04T04:14:37.453Z,101036.63
2018-07-04T04:19:47.604Z,101041.78
2018-07-04T04:24:57.702Z,101047.24
2018-07-04T04:30:07.850Z,101050.52
2018-07-04T04:35:17.929Z,101042.31
2018-07-04T04:40:28.092Z,101048.55
2018-07-04T04:45:38.087Z,101051.00
2018-07-04T04:50:48.364Z,101053.14
2018-07-04T04:55:58.368Z,101047.90
2018-07-04T05:01:08.463Z,101048.16
2018-07-04T05:06:18.613Z,101049.20
2018-07-04T05:11:28.647Z,101059.03
2018-07-04T05:16:38.779Z,101060.89
2018-07-04T05:21:48.910Z,101061.91
2018-07-04T05:26:58.880Z,101063.75
2018-07-04T05:32:09.018Z,101059.61
2018-07-04T05:37:19.137Z,101063.91
2018-07-04T05:42:29.190Z,101060.55
2018-07-04T05:47:39.469Z,101054.22
2018-07-04T05:52:49.583Z,101065.06
2018-07-04T05:57:59.749Z,101064.17
2018-07-04T06:03:09.910Z,101062.70
2018-07-04T06:08:20.017Z,101069.44
2018-07-04T06:13:30.087Z,101061.20
2018-07-04T06:18:40.182Z,101066.58
2018-07-04T06:23:50.552Z,101064.89
2018-07-04T06:29:00.674Z,101060.45
2018-07-04T06:34:10.704Z,101066.66
2018-07-04T06:39:02.259Z,101060.03
2018-07-04T06:43:53.739Z,101066.51
2018-07-04T06:48:45.252Z,101063.95
2018-07-04T06:53:36.707Z,101067.94
2018-07-04T06:58:28.388Z,101066.75
2018-07-04T07:03:38.475Z,101065.02
2018-07-04T07:08:48.518Z,101063.53
2018-07-04T07:13:58.540Z,101072.23
2018-07-04T07:19:08.968Z,101072.17
2018-07-04T07:24:19.164Z,101068.73
2018-07-04T07:29:29.200Z,101073.67
2018-07-04T07:34:39.250Z,101069.30
2018-07-04T07:39:49.488Z,101065.70
2018-07-04T07:44:59.459Z,101065.09
2018-07-04T07:50:09.572Z,101060.91
2018-07-04T08:00:41.495Z,101046.70
2018-07-04T08:05:51.771Z,101043.16
2018-07-04T08:11:01.730Z,101039.25
2018-07-04T08:16:11.806Z,101025.97
2018-07-04T08:21:22.055Z,101025.95
2018-07-04T08:26:32.309Z,101021.03
2018-07-04T08:31:42.380Z,101023.91
2018-07-04T08:36:52.469Z,101017.56
2018-07-04T08:42:02.613Z,101026.21
2018-07-04T08:47:12.716Z,101024.84
2018-07-04T08:52:22.901Z,101018.38
2018-07-04T08:57:33.072Z,101025.09
2018-07-04T09:02:43.582Z,101018.88
2018-07-04T09:07:53.693Z,101014.86
2018-07-04T09:13:03.644Z,101017.03
2018-07-04T09:18:13.790Z,101009.86
2018-07-04T09:23:23.866Z,101011.36
2018-07-04T09:28:34.050Z,101006.81
2018-07-04T09:33:44.336Z,101010.32
2018-07-04T09:38:54.393Z,101010.66
2018-07-04T09:44:04.467Z,101006.58
2018-07-04T09:49:14.684Z,100997.50
2018-07-04T09:54:24.824Z,100995.78
2018-07-04T09:59:34.945Z,100993.78
2018-07-04T10:04:45.151Z,100987.37
2018-07-04T10:09:55.168Z,100987.12
2018-07-04T10:15:05.313Z,100985.09
2018-07-04T10:20:15.804Z,100980.90
2018-07-04T10:25:25.940Z,100974.80
2018-07-04T10:30:35.956Z,100975.61
2018-07-04T10:35:45.965Z,100972.77
2018-07-04T10:40:56.166Z,100969.50
2018-07-04T10:46:06.379Z,100967.59
2018-07-04T10:51:16.500Z,100949.81
2018-07-04T10:56:26.633Z,100953.17
2018-07-04T11:01:36.882Z,100951.20
2018-07-04T11:06:46.931Z,100947.80
2018-07-04T11:11:57.071Z,100937.38
2018-07-04T11:17:07.413Z,100940.66
2018-07-04T11:22:17.475Z,100938.23
2018-07-04T11:27:27.558Z,100932.66
2018-07-04T11:32:37.608Z,100927.89
2018-07-04T11:37:47.607Z,100922.98
2018-07-04T11:42:57.723Z,100916.48
2018-07-04T11:47:49.190Z,100915.97
2018-07-04T11:52:40.718Z,100914.56
2018-07-04T11:57:32.217Z,100905.54
2018-07-04T12:02:23.800Z,100908.67
2018-07-04T12:07:15.287Z,100905.86
2018-07-04T12:12:06.752Z,100905.59
2018-07-04T12:16:58.689Z,100895.44
2018-07-04T12:21:50.197Z,100883.25
2018-07-04T12:26:41.725Z,100886.67
2018-07-04T12:31:33.213Z,100885.22
2018-07-04T12:36:24.744Z,100886.39
2018-07-04T12:41:16.276Z,100883.02
2018-07-04T12:46:07.769Z,100889.62
2018-07-04T12:50:59.268Z,100885.11
2018-07-04T12:56:09.328Z,100875.38
2018-07-04T13:01:19.504Z,100867.43
2018-07-04T13:06:29.677Z,100861.48
2018-07-04T13:11:39.913Z,100862.53
2018-07-04T13:16:50.052Z,100860.91
2018-07-04T13:22:00.320Z,100846.08
2018-07-04T13:27:10.297Z,100837.64
2018-07-04T13:32:20.409Z,100824.50
2018-07-04T13:37:30.403Z,100837.05
2018-07-04T13:42:40.500Z,100827.23
2018-07-04T13:47:50.681Z,100816.94
2018-07-04T13:53:00.798Z,100811.87
2018-07-04T13:58:10.856Z,100805.17
2018-07-04T14:03:20.980Z,100797.56
2018-07-04T14:08:31.166Z,100802.83
2018-07-04T14:13:41.355Z,100792.95
2018-07-04T14:18:51.481Z,100791.03
2018-07-04T14:24:01.663Z,100785.61
2018-07-04T14:29:11.936Z,100777.67
2018-07-04T14:34:22.043Z,100769.84
2018-07-04T14:39:32.190Z,100773.80
2018-07-04T14:44:42.143Z,100763.95
2018-07-04T14:49:52.331Z,100760.09
2018-07-04T14:55:02.424Z,100751.03
2018-07-04T15:00:12.648Z,100743.52
2018-07-04T15:05:22.594Z,100750.22
2018-07-04T15:10:32.758Z,100734.49
2018-07-04T15:15:43.017Z,100735.89
2018-07-04T15:20:52.926Z,100735.30
2018-07-04T15:26:03.028Z,100732.34
2018-07-04T15:31:13.119Z,100726.40
2018-07-04T15:36:23.235Z,100728.44
2018-07-04T15:41:33.328Z,100720.75
2018-07-04T15:46:43.375Z,100718.13
2018-07-04T15:51:53.404Z,100710.98
2018-07-04T15:57:03.748Z,100717.33
2018-07-04T16:02:13.714Z,100709.10
2018-07-04T16:07:23.827Z,100716.45
2018-07-04T16:12:33.972Z,100715.22
2018-07-04T16:17:44.092Z,100710.83
2018-07-04T16:22:54.301Z,100703.61
2018-07-04T16:28:04.295Z,100710.14
2018-07-04T16:33:14.384Z,100702.08
2018-07-04T16:38:24.445Z,100696.53
2018-07-04T16:43:34.659Z,100695.47
2018-07-04T16:48:44.775Z,100692.46
2018-07-04T16:53:54.915Z,100693.62
2018-07-04T16:59:05.081Z,100692.97
2018-07-04T17:04:15.144Z,100688.41
2018-07-04T17:09:25.190Z,100682.32
2018-07-04T17:14:35.320Z,100676.88
2018-07-04T17:19:45.392Z,100672.28
2018-07-04T17:24:55.409Z,100667.45
2018-07-04T17:30:05.571Z,100673.46
2018-07-04T17:35:15.668Z,100675.56
2018-07-04T17:40:25.789Z,100675.69
2018-07-04T17:45:35.944Z,100668.84
2018-07-04T17:50:46.130Z,100666.58
2018-07-04T17:55:56.288Z,100668.09
2018-07-04T18:01:06.363Z,100668.30
2018-07-04T18:06:16.455Z,100665.05
2018-07-04T18:11:26.659Z,100677.25
2018-07-04T18:16:36.727Z,100671.95
2018-07-04T18:21:46.853Z,100677.77
2018-07-04T18:26:57.024Z,100673.98
2018-07-04T18:32:07.495Z,100676.12
2018-07-04T18:37:17.455Z,100669.20
2018-07-04T18:42:27.506Z,100674.16
2018-07-04T18:47:37.507Z,100674.16
2018-07-04T18:52:47.725Z,100677.31
2018-07-04T18:57:57.858Z,100672.13
2018-07-04T19:03:07.981Z,100671.90
2018-07-04T19:08:18.143Z,100672.08
2018-07-04T19:13:28.241Z,100673.14
2018-07-04T19:18:38.331Z,100666.67
2018-07-04T19:23:48.720Z,100669.78
2018-07-04T19:28:58.977Z,100679.11
2018-07-04T19:34:09.040Z,100683.08
2018-07-04T19:39:19.216Z,100692.88
2018-07-04T19:44:29.343Z,100689.26
2018-07-04T19:49:39.539Z,100694.55
2018-07-04T19:54:49.584Z,100690.84
2018-07-04T19:59:59.624Z,100693.38
2018-07-04T20:05:10.165Z,100695.03
2018-07-04T20:10:20.336Z,100706.30
2018-07-04T20:15:30.511Z,100705.69
2018-07-04T20:20:40.594Z,100694.30
2018-07-04T20:25:50.644Z,100699.98
2018-07-04T20:31:00.916Z,100701.97
2018-07-04T20:36:11.109Z,100704.06
2018-07-04T20:41:21.255Z,100698.31
2018-07-04T20:46:31.360Z,100700.59
2018-07-04T20:51:41.444Z,100701.16
2018-07-04T20:56:51.676Z,100704.30
2018-07-04T21:02:01.853Z,100697.23
2018-07-04T21:07:11.815Z,100710.02
2018-07-04T21:12:21.957Z,100709.99
2018-07-04T21:17:32.050Z,100713.60
2018-07-04T21:22:42.164Z,100716.55
2018-07-04T21:27:52.402Z,100722.79
2018-07-04T21:33:02.592Z,100721.14
2018-07-04T21:38:12.545Z,100729.44
2018-07-04T21:43:22.622Z,100720.88
2018-07-04T21:48:32.687Z,100721.55
2018-07-04T21:53:42.922Z,100727.22
2018-07-04T21:58:53.021Z,100725.86
2018-07-04T22:04:03.216Z,100725.05
2018-07-04T22:09:13.215Z,100721.73
2018-07-04T22:14:23.424Z,100716.18
2018-07-04T22:19:33.551Z,100713.95
2018-07-04T22:24:43.714Z,100707.58
2018-07-04T22:29:53.755Z,100712.48
2018-07-04T22:35:03.888Z,100707.18
2018-07-04T22:40:14.835Z,100708.27
2018-07-04T22:45:24.973Z,100700.86
2018-07-04T22:50:35.078Z,100703.60
2018-07-04T22:55:45.183Z,100705.50
2018-07-04T23:00:55.320Z,100699.20
2018-07-04T23:06:05.411Z,100691.55
2018-07-04T23:11:15.497Z,100685.24
2018-07-04T23:16:25.615Z,100680.69
2018-07-04T23:21:35.730Z,100680.77
2018-07-04T23:26:45.882Z,100685.04
2018-07-04T23:31:55.974Z,100684.58
2018-07-04T23:37:06.161Z,100689.02
2018-07-04T23:42:16.188Z,100688.83
2018-07-04T23:47:26.278Z,100683.48
2018-07-04T23:52:36.336Z,100688.23
2018-07-04T23:57:46.412Z,100693.90
